sensor_id;sensor_type;location;lat;lon;timestamp;pressure;altitude;pressure_sealevel;temperature;humidity
17649;BME280;8943;51.110;-4.158;2023-05-11T00:02:17;101163.72;;;17.40;55.08
17649;BME280;8943;51.110;-4.158;2023-05-11T00:04:45;101157.91;;;17.35;55.16
17649;BME280;8943;51.110;-4.158;2023-05-11T00:07:13;101158.19;;;17.32;55.06
17649;BME280;8943;51.110;-4.158;2023-05-11T00:09:42;101154.66;;;17.32;55.44
17649;BME280;8943;51.110;-4.158;2023-05-11T00:12:10;101159.19;;;17.31;55.01
17649;BME280;8943;51.110;-4.158;2023-05-11T00:14:39;101155.38;;;17.34;55.35
17649;BME280;8943;51.110;-4.158;2023-05-11T00:17:08;101161.59;;;17.34;55.29
17649;BME280;8943;51.110;-4.158;2023-05-11T00:19:38;101158.06;;;17.34;55.58
17649;BME280;8943;51.110;-4.158;2023-05-11T00:22:06;101160.31;;;17.38;54.93
17649;BME280;8943;51.110;-4.158;2023-05-11T00:24:34;101155.78;;;17.39;55.23
17649;BME280;8943;51.110;-4.158;2023-05-11T00:27:03;101164.03;;;17.37;55.19
17649;BME280;8943;51.110;-4.158;2023-05-11T00:29:31;101162.88;;;17.40;55.19
17649;BME280;8943;51.110;-4.158;2023-05-11T00:31:59;101159.03;;;17.42;55.03
17649;BME280;8943;51.110;-4.158;2023-05-11T00:34:27;101163.56;;;17.42;55.16
17649;BME280;8943;51.110;-4.158;2023-05-11T00:36:57;101157.47;;;17.40;55.20
17649;BME280;8943;51.110;-4.158;2023-05-11T00:39:26;101161.16;;;17.39;55.24
17649;BME280;8943;51.110;-4.158;2023-05-11T00:41:54;101160.84;;;17.42;55.41
17649;BME280;8943;51.110;-4.158;2023-05-11T00:44:22;101159.16;;;17.41;55.27
17649;BME280;8943;51.110;-4.158;2023-05-11T00:46:50;101165.72;;;17.38;55.33
17649;BME280;8943;51.110;-4.158;2023-05-11T00:49:18;101166.13;;;17.43;55.49
17649;BME280;8943;51.110;-4.158;2023-05-11T00:51:48;101158.31;;;17.40;55.40
17649;BME280;8943;51.110;-4.158;2023-05-11T00:54:17;101157.75;;;17.37;55.25
17649;BME280;8943;51.110;-4.158;2023-05-11T00:56:46;101161.84;;;17.41;55.82
17649;BME280;8943;51.110;-4.158;2023-05-11T00:59:15;101165.72;;;17.38;55.42
17649;BME280;8943;51.110;-4.158;2023-05-11T01:01:44;101162.88;;;17.40;55.58
17649;BME280;8943;51.110;-4.158;2023-05-11T01:04:12;101165.97;;;17.45;55.34
17649;BME280;8943;51.110;-4.158;2023-05-11T01:06:47;101158.56;;;17.47;55.42
17649;BME280;8943;51.110;-4.158;2023-05-11T01:09:26;101160.28;;;17.48;55.50
17649;BME280;8943;51.110;-4.158;2023-05-11T01:12:04;101162.25;;;17.46;55.55
17649;BME280;8943;51.110;-4.158;2023-05-11T01:14:40;101161.56;;;17.44;55.63
17649;BME280;8943;51.110;-4.158;2023-05-11T01:17:13;101157.72;;;17.46;55.39
17649;BME280;8943;51.110;-4.158;2023-05-11T01:19:48;101149.81;;;17.45;55.59
17649;BME280;8943;51.110;-4.158;2023-05-11T01:22:30;101148.97;;;17.44;55.72
17649;BME280;8943;51.110;-4.158;2023-05-11T01:25:10;101154.19;;;17.46;55.61
17649;BME280;8943;51.110;-4.158;2023-05-11T01:27:54;101151.22;;;17.49;55.58
17649;BME280;8943;51.110;-4.158;2023-05-11T01:30:27;101151.22;;;17.49;55.47
17649;BME280;8943;51.110;-4.158;2023-05-11T01:32:58;101148.09;;;17.44;55.43
17649;BME280;8943;51.110;-4.158;2023-05-11T01:35:32;101160.00;;;17.41;55.65
17649;BME280;8943;51.110;-4.158;2023-05-11T01:38:05;101148.97;;;17.35;55.81
17649;BME280;8943;51.110;-4.158;2023-05-11T01:40:38;101153.81;;;17.31;55.91
17649;BME280;8943;51.110;-4.158;2023-05-11T01:43:12;101148.84;;;17.27;55.64
17649;BME280;8943;51.110;-4.158;2023-05-11T01:45:45;101151.28;;;17.30;55.88
17649;BME280;8943;51.110;-4.158;2023-05-11T01:48:20;101152.41;;;17.27;55.95
17649;BME280;8943;51.110;-4.158;2023-05-11T01:50:50;101155.50;;;17.32;56.20
17649;BME280;8943;51.110;-4.158;2023-05-11T01:53:20;101163.72;;;17.31;56.11
17649;BME280;8943;51.110;-4.158;2023-05-11T01:55:50;101148.41;;;17.31;56.05
17649;BME280;8943;51.110;-4.158;2023-05-11T01:58:18;101154.25;;;17.27;56.10
17649;BME280;8943;51.110;-4.158;2023-05-11T02:00:50;101153.56;;;17.24;56.34
17649;BME280;8943;51.110;-4.158;2023-05-11T02:03:20;101159.78;;;17.25;56.32
17649;BME280;8943;51.110;-4.158;2023-05-11T02:05:50;101154.69;;;17.22;56.25
17649;BME280;8943;51.110;-4.158;2023-05-11T02:08:20;101149.59;;;17.19;56.50
17649;BME280;8943;51.110;-4.158;2023-05-11T02:10:49;101153.41;;;17.16;56.39
17649;BME280;8943;51.110;-4.158;2023-05-11T02:13:18;101158.69;;;17.18;56.38
17649;BME280;8943;51.110;-4.158;2023-05-11T02:15:51;101153.81;;;17.21;56.41
17649;BME280;8943;51.110;-4.158;2023-05-11T02:18:21;101160.47;;;17.27;56.25
17649;BME280;8943;51.110;-4.158;2023-05-11T02:20:49;101158.66;;;17.28;56.40
17649;BME280;8943;51.110;-4.158;2023-05-11T02:23:19;101161.34;;;17.28;56.46
17649;BME280;8943;51.110;-4.158;2023-05-11T02:25:51;101155.09;;;17.27;56.36
17649;BME280;8943;51.110;-4.158;2023-05-11T02:28:19;101160.19;;;17.30;56.38
17649;BME280;8943;51.110;-4.158;2023-05-11T02:30:52;101164.72;;;17.30;56.33
17649;BME280;8943;51.110;-4.158;2023-05-11T02:33:24;101167.16;;;17.33;56.19
17649;BME280;8943;51.110;-4.158;2023-05-11T02:35:55;101164.47;;;17.33;56.11
17649;BME280;8943;51.110;-4.158;2023-05-11T02:38:29;101152.28;;;17.29;55.72
17649;BME280;8943;51.110;-4.158;2023-05-11T02:41:05;101156.94;;;17.27;55.93
17649;BME280;8943;51.110;-4.158;2023-05-11T02:43:35;101167.16;;;17.23;56.17
17649;BME280;8943;51.110;-4.158;2023-05-11T02:46:11;101159.66;;;17.17;55.94
17649;BME280;8943;51.110;-4.158;2023-05-11T02:48:43;101162.66;;;17.14;56.15
17649;BME280;8943;51.110;-4.158;2023-05-11T02:51:16;101163.78;;;17.11;56.03
17649;BME280;8943;51.110;-4.158;2023-05-11T02:53:47;101162.66;;;17.04;55.82
17649;BME280;8943;51.110;-4.158;2023-05-11T02:56:15;101155.28;;;16.96;56.06
17649;BME280;8943;51.110;-4.158;2023-05-11T02:58:44;101165.22;;;16.96;55.97
17649;BME280;8943;51.110;-4.158;2023-05-11T03:01:14;101160.97;;;16.93;55.91
17649;BME280;8943;51.110;-4.158;2023-05-11T03:03:43;101157.72;;;16.90;55.77
17649;BME280;8943;51.110;-4.158;2023-05-11T03:06:11;101160.09;;;16.83;55.97
17649;BME280;8943;51.110;-4.158;2023-05-11T03:08:40;101165.91;;;16.79;55.88
17649;BME280;8943;51.110;-4.158;2023-05-11T03:11:10;101154.47;;;16.77;56.03
17649;BME280;8943;51.110;-4.158;2023-05-11T03:13:41;101159.28;;;16.73;55.91
17649;BME280;8943;51.110;-4.158;2023-05-11T03:16:10;101159.66;;;16.68;56.07
17649;BME280;8943;51.110;-4.158;2023-05-11T03:18:40;101154.44;;;16.67;55.65
17649;BME280;8943;51.110;-4.158;2023-05-11T03:21:10;101156.69;;;16.62;55.99
17649;BME280;8943;51.110;-4.158;2023-05-11T03:23:39;101160.66;;;16.58;56.00
17649;BME280;8943;51.110;-4.158;2023-05-11T03:26:08;101154.69;;;16.54;55.94
17649;BME280;8943;51.110;-4.158;2023-05-11T03:28:39;101161.50;;;16.48;56.13
17649;BME280;8943;51.110;-4.158;2023-05-11T03:31:10;101154.41;;;16.47;55.96
17649;BME280;8943;51.110;-4.158;2023-05-11T03:33:40;101153.16;;;16.42;56.23
17649;BME280;8943;51.110;-4.158;2023-05-11T03:36:09;101154.84;;;16.43;56.22
17649;BME280;8943;51.110;-4.158;2023-05-11T03:38:38;101151.72;;;16.38;56.09
17649;BME280;8943;51.110;-4.158;2023-05-11T03:41:07;101149.34;;;16.35;56.09
17649;BME280;8943;51.110;-4.158;2023-05-11T03:43:35;101148.34;;;16.36;56.04
17649;BME280;8943;51.110;-4.158;2023-05-11T03:46:05;101153.56;;;16.37;56.30
17649;BME280;8943;51.110;-4.158;2023-05-11T03:48:34;101148.03;;;16.39;56.43
17649;BME280;8943;51.110;-4.158;2023-05-11T03:51:04;101160.22;;;16.43;56.08
17649;BME280;8943;51.110;-4.158;2023-05-11T03:53:32;101162.91;;;16.43;56.18
17649;BME280;8943;51.110;-4.158;2023-05-11T03:56:01;101161.91;;;16.44;56.12
17649;BME280;8943;51.110;-4.158;2023-05-11T03:58:30;101166.31;;;16.45;56.35
17649;BME280;8943;51.110;-4.158;2023-05-11T04:00:59;101160.53;;;16.40;56.22
17649;BME280;8943;51.110;-4.158;2023-05-11T04:03:27;101166.88;;;16.39;56.32
17649;BME280;8943;51.110;-4.158;2023-05-11T04:05:56;101166.16;;;16.37;56.17
17649;BME280;8943;51.110;-4.158;2023-05-11T04:08:27;101160.09;;;16.35;55.86
17649;BME280;8943;51.110;-4.158;2023-05-11T04:10:55;101163.03;;;16.32;56.07
17649;BME280;8943;51.110;-4.158;2023-05-11T04:13:23;101162.31;;;16.30;56.30
17649;BME280;8943;51.110;-4.158;2023-05-11T04:15:51;101158.38;;;16.34;56.04
17649;BME280;8943;51.110;-4.158;2023-05-11T04:18:20;101169.84;;;16.36;56.06
17649;BME280;8943;51.110;-4.158;2023-05-11T04:20:48;101168.72;;;16.38;56.22
17649;BME280;8943;51.110;-4.158;2023-05-11T04:23:16;101166.88;;;16.39;56.20
17649;BME280;8943;51.110;-4.158;2023-05-11T04:25:45;101168.59;;;16.40;56.09
17649;BME280;8943;51.110;-4.158;2023-05-11T04:28:13;101173.97;;;16.40;56.00
17649;BME280;8943;51.110;-4.158;2023-05-11T04:30:41;101175.94;;;16.38;55.73
17649;BME280;8943;51.110;-4.158;2023-05-11T04:33:10;101173.66;;;16.33;55.93
17649;BME280;8943;51.110;-4.158;2023-05-11T04:35:40;101171.38;;;16.29;55.94
17649;BME280;8943;51.110;-4.158;2023-05-11T04:38:08;101170.97;;;16.33;55.80
17649;BME280;8943;51.110;-4.158;2023-05-11T04:40:36;101174.50;;;16.34;55.89
17649;BME280;8943;51.110;-4.158;2023-05-11T04:43:06;101167.44;;;16.33;56.09
17649;BME280;8943;51.110;-4.158;2023-05-11T04:45:34;101169.13;;;16.34;56.01
17649;BME280;8943;51.110;-4.158;2023-05-11T04:48:02;101166.31;;;16.35;55.97
17649;BME280;8943;51.110;-4.158;2023-05-11T04:50:32;101170.69;;;16.36;56.20
17649;BME280;8943;51.110;-4.158;2023-05-11T04:53:00;101170.28;;;16.41;55.96
17649;BME280;8943;51.110;-4.158;2023-05-11T04:55:28;101172.56;;;16.45;56.16
17649;BME280;8943;51.110;-4.158;2023-05-11T04:57:56;101171.28;;;16.50;56.06
17649;BME280;8943;51.110;-4.158;2023-05-11T05:00:26;101178.78;;;16.56;56.22
17649;BME280;8943;51.110;-4.158;2023-05-11T05:02:54;101185.44;;;16.61;56.19
17649;BME280;8943;51.110;-4.158;2023-05-11T05:05:23;101176.81;;;16.67;56.26
17649;BME280;8943;51.110;-4.158;2023-05-11T05:07:51;101181.63;;;16.73;56.04
17649;BME280;8943;51.110;-4.158;2023-05-11T05:10:19;101177.69;;;16.78;55.78
17649;BME280;8943;51.110;-4.158;2023-05-11T05:12:47;101184.34;;;16.83;56.03
17649;BME280;8943;51.110;-4.158;2023-05-11T05:15:15;101190.13;;;16.88;56.02
17649;BME280;8943;51.110;-4.158;2023-05-11T05:17:45;101195.09;;;16.93;55.88
17649;BME280;8943;51.110;-4.158;2023-05-11T05:20:13;101192.97;;;16.96;55.93
17649;BME280;8943;51.110;-4.158;2023-05-11T05:22:41;101187.31;;;16.99;55.75
17649;BME280;8943;51.110;-4.158;2023-05-11T05:25:09;101193.28;;;17.03;55.61
17649;BME280;8943;51.110;-4.158;2023-05-11T05:27:37;101196.94;;;17.02;55.75
17649;BME280;8943;51.110;-4.158;2023-05-11T05:30:06;101196.66;;;17.05;55.60
17649;BME280;8943;51.110;-4.158;2023-05-11T05:32:35;101197.94;;;17.11;55.42
17649;BME280;8943;51.110;-4.158;2023-05-11T05:35:05;101200.63;;;17.11;55.75
17649;BME280;8943;51.110;-4.158;2023-05-11T05:37:33;101196.81;;;17.13;55.66
17649;BME280;8943;51.110;-4.158;2023-05-11T05:40:04;101201.59;;;17.19;55.56
17649;BME280;8943;51.110;-4.158;2023-05-11T05:42:32;101206.56;;;17.24;55.70
17649;BME280;8943;51.110;-4.158;2023-05-11T05:45:01;101199.06;;;17.28;55.78
17649;BME280;8943;51.110;-4.158;2023-05-11T05:47:29;101206.25;;;17.37;55.70
17649;BME280;8943;51.110;-4.158;2023-05-11T05:49:57;101206.97;;;17.39;55.57
17649;BME280;8943;51.110;-4.158;2023-05-11T05:52:27;101209.66;;;17.39;55.71
17649;BME280;8943;51.110;-4.158;2023-05-11T05:54:55;101212.19;;;17.50;55.68
17649;BME280;8943;51.110;-4.158;2023-05-11T05:57:23;101226.47;;;17.60;55.62
17649;BME280;8943;51.110;-4.158;2023-05-11T05:59:52;101216.66;;;17.69;55.81
17649;BME280;8943;51.110;-4.158;2023-05-11T06:02:20;101222.06;;;17.79;55.49
17649;BME280;8943;51.110;-4.158;2023-05-11T06:04:48;101218.75;;;17.85;55.46
17649;BME280;8943;51.110;-4.158;2023-05-11T06:07:17;101223.56;;;17.91;55.40
17649;BME280;8943;51.110;-4.158;2023-05-11T06:09:47;101220.28;;;17.97;55.61
17649;BME280;8943;51.110;-4.158;2023-05-11T06:12:15;101225.09;;;18.03;55.51
17649;BME280;8943;51.110;-4.158;2023-05-11T06:14:43;101217.78;;;18.13;55.32
17649;BME280;8943;51.110;-4.158;2023-05-11T06:17:12;101222.34;;;18.13;54.72
17649;BME280;8943;51.110;-4.158;2023-05-11T06:19:40;101216.81;;;18.05;54.28
17649;BME280;8943;51.110;-4.158;2023-05-11T06:22:08;101221.97;;;17.98;54.30
17649;BME280;8943;51.110;-4.158;2023-05-11T06:24:37;101218.63;;;17.86;54.20
17649;BME280;8943;51.110;-4.158;2023-05-11T06:27:06;101222.63;;;17.82;54.37
17649;BME280;8943;51.110;-4.158;2023-05-11T06:29:35;101221.06;;;17.80;54.24
17649;BME280;8943;51.110;-4.158;2023-05-11T06:32:04;101231.72;;;17.71;54.26
17649;BME280;8943;51.110;-4.158;2023-05-11T06:34:33;101223.63;;;17.71;54.44
17649;BME280;8943;51.110;-4.158;2023-05-11T06:37:01;101233.69;;;17.69;54.69
17649;BME280;8943;51.110;-4.158;2023-05-11T06:39:29;101232.84;;;17.69;54.42
17649;BME280;8943;51.110;-4.158;2023-05-11T06:41:59;101234.28;;;17.63;54.01
17649;BME280;8943;51.110;-4.158;2023-05-11T06:44:29;101233.97;;;17.57;54.43
17649;BME280;8943;51.110;-4.158;2023-05-11T06:46:59;101235.31;;;17.53;54.17
17649;BME280;8943;51.110;-4.158;2023-05-11T06:49:29;101233.97;;;17.57;54.12
17649;BME280;8943;51.110;-4.158;2023-05-11T06:51:58;101232.84;;;17.59;54.54
17649;BME280;8943;51.110;-4.158;2023-05-11T06:54:27;101233.53;;;17.71;54.67
17649;BME280;8943;51.110;-4.158;2023-05-11T06:56:55;101245.28;;;17.89;54.48
17649;BME280;8943;51.110;-4.158;2023-05-11T06:59:23;101238.34;;;17.87;53.07
17649;BME280;8943;51.110;-4.158;2023-05-11T07:01:53;101239.63;;;17.83;52.98
17649;BME280;8943;51.110;-4.158;2023-05-11T07:04:21;101242.47;;;17.81;53.27
17649;BME280;8943;51.110;-4.158;2023-05-11T07:06:50;101234.25;;;17.83;52.91
17649;BME280;8943;51.110;-4.158;2023-05-11T07:09:18;101239.03;;;17.89;53.56
17649;BME280;8943;51.110;-4.158;2023-05-11T07:11:47;101233.16;;;18.03;53.78
17649;BME280;8943;51.110;-4.158;2023-05-11T07:14:16;101241.16;;;18.22;53.45
17649;BME280;8943;51.110;-4.158;2023-05-11T07:16:45;101233.72;;;18.34;53.25
17649;BME280;8943;51.110;-4.158;2023-05-11T07:19:16;101237.53;;;18.41;52.52
17649;BME280;8943;51.110;-4.158;2023-05-11T07:21:44;101239.44;;;18.31;52.09
17649;BME280;8943;51.110;-4.158;2023-05-11T07:24:12;101234.59;;;18.25;51.98
17649;BME280;8943;51.110;-4.158;2023-05-11T07:26:41;101226.00;;;18.21;52.21
17649;BME280;8943;51.110;-4.158;2023-05-11T07:29:09;101234.38;;;18.18;52.27
17649;BME280;8943;51.110;-4.158;2023-05-11T07:31:37;101242.63;;;18.17;52.18
17649;BME280;8943;51.110;-4.158;2023-05-11T07:34:06;101233.84;;;18.05;52.30
17649;BME280;8943;51.110;-4.158;2023-05-11T07:36:36;101233.91;;;17.95;52.34
17649;BME280;8943;51.110;-4.158;2023-05-11T07:39:04;101241.91;;;17.87;52.70
17649;BME280;8943;51.110;-4.158;2023-05-11T07:41:32;101249.56;;;17.82;53.19
17649;BME280;8943;51.110;-4.158;2023-05-11T07:44:01;101246.44;;;17.87;53.50
17649;BME280;8943;51.110;-4.158;2023-05-11T07:46:29;101243.31;;;17.91;53.69
17649;BME280;8943;51.110;-4.158;2023-05-11T07:48:57;101244.00;;;17.93;53.69
17649;BME280;8943;51.110;-4.158;2023-05-11T07:51:45;101244.16;;;17.92;53.53
17649;BME280;8943;51.110;-4.158;2023-05-11T07:54:14;101242.75;;;17.88;53.81
17649;BME280;8943;51.110;-4.158;2023-05-11T07:56:45;101240.31;;;17.85;53.82
17649;BME280;8943;51.110;-4.158;2023-05-11T07:59:15;101249.81;;;17.89;53.95
17649;BME280;8943;51.110;-4.158;2023-05-11T08:01:43;101247.94;;;17.99;53.92
17649;BME280;8943;51.110;-4.158;2023-05-11T08:04:11;101242.25;;;18.02;53.77
17649;BME280;8943;51.110;-4.158;2023-05-11T08:06:40;101232.16;;;18.04;53.88
17649;BME280;8943;51.110;-4.158;2023-05-11T08:09:10;101238.13;;;18.08;53.65
17649;BME280;8943;51.110;-4.158;2023-05-11T08:11:38;101247.06;;;18.08;53.80
17649;BME280;8943;51.110;-4.158;2023-05-11T08:14:06;101253.13;;;18.10;53.35
17649;BME280;8943;51.110;-4.158;2023-05-11T08:16:36;101249.19;;;18.05;53.64
17649;BME280;8943;51.110;-4.158;2023-05-11T08:19:06;101250.75;;;18.07;53.61
17649;BME280;8943;51.110;-4.158;2023-05-11T08:21:34;101255.31;;;18.07;53.29
17649;BME280;8943;51.110;-4.158;2023-05-11T08:24:03;101254.84;;;18.11;52.71
17649;BME280;8943;51.110;-4.158;2023-05-11T08:26:33;101254.00;;;18.11;52.01
17649;BME280;8943;51.110;-4.158;2023-05-11T08:29:01;101254.00;;;18.11;52.11
17649;BME280;8943;51.110;-4.158;2023-05-11T08:31:29;101250.41;;;18.20;51.78
17649;BME280;8943;51.110;-4.158;2023-05-11T08:33:58;101255.56;;;18.41;52.20
17649;BME280;8943;51.110;-4.158;2023-05-11T08:36:26;101258.84;;;18.62;52.27
17649;BME280;8943;51.110;-4.158;2023-05-11T08:38:54;101249.56;;;18.74;51.60
17649;BME280;8943;51.110;-4.158;2023-05-11T08:41:24;101257.19;;;18.79;51.35
17649;BME280;8943;51.110;-4.158;2023-05-11T08:43:54;101267.94;;;18.89;50.90
17649;BME280;8943;51.110;-4.158;2023-05-11T08:46:27;101249.72;;;18.91;50.91
17649;BME280;8943;51.110;-4.158;2023-05-11T08:48:56;101261.00;;;19.04;50.90
17649;BME280;8943;51.110;-4.158;2023-05-11T08:51:25;101261.44;;;18.99;50.28
17649;BME280;8943;51.110;-4.158;2023-05-11T08:53:53;101256.19;;;18.98;50.33
17649;BME280;8943;51.110;-4.158;2023-05-11T08:56:24;101253.47;;;18.98;50.27
17649;BME280;8943;51.110;-4.158;2023-05-11T08:58:54;101254.56;;;18.87;50.12
17649;BME280;8943;51.110;-4.158;2023-05-11T09:01:27;101261.06;;;18.94;50.13
17649;BME280;8943;51.110;-4.158;2023-05-11T09:03:56;101257.75;;;19.00;50.11
17649;BME280;8943;51.110;-4.158;2023-05-11T09:06:25;101265.84;;;19.18;50.22
17649;BME280;8943;51.110;-4.158;2023-05-11T09:08:54;101270.63;;;19.24;49.92
17649;BME280;8943;51.110;-4.158;2023-05-11T09:11:22;101259.97;;;19.23;49.83
17649;BME280;8943;51.110;-4.158;2023-05-11T09:13:54;101258.34;;;19.30;50.12
17649;BME280;8943;51.110;-4.158;2023-05-11T09:16:23;101260.25;;;19.38;49.92
17649;BME280;8943;51.110;-4.158;2023-05-11T09:19:02;101264.03;;;19.45;49.82
17649;BME280;8943;51.110;-4.158;2023-05-11T09:21:31;101259.63;;;19.44;49.69
17649;BME280;8943;51.110;-4.158;2023-05-11T09:24:01;101263.34;;;19.43;49.78
17649;BME280;8943;51.110;-4.158;2023-05-11T09:26:32;101263.63;;;19.58;50.31
17649;BME280;8943;51.110;-4.158;2023-05-11T09:29:02;101264.03;;;19.63;49.66
17649;BME280;8943;51.110;-4.158;2023-05-11T09:31:35;101266.31;;;19.58;49.27
17649;BME280;8943;51.110;-4.158;2023-05-11T09:34:14;101265.88;;;19.44;49.31
17649;BME280;8943;51.110;-4.158;2023-05-11T09:36:43;101270.19;;;19.37;48.97
17649;BME280;8943;51.110;-4.158;2023-05-11T09:39:12;101263.91;;;19.28;48.91
17649;BME280;8943;51.110;-4.158;2023-05-11T09:41:42;101273.47;;;19.23;49.12
17649;BME280;8943;51.110;-4.158;2023-05-11T09:44:14;101266.75;;;19.27;48.99
17649;BME280;8943;51.110;-4.158;2023-05-11T09:46:43;101267.19;;;19.40;49.59
17649;BME280;8943;51.110;-4.158;2023-05-11T09:49:12;101275.34;;;19.66;49.76
17649;BME280;8943;51.110;-4.158;2023-05-11T09:51:40;101280.06;;;19.90;48.93
17649;BME280;8943;51.110;-4.158;2023-05-11T09:54:16;101268.78;;;19.95;47.09
17649;BME280;8943;51.110;-4.158;2023-05-11T09:56:47;101281.69;;;20.01;47.38
17649;BME280;8943;51.110;-4.158;2023-05-11T09:59:36;101277.59;;;19.97;47.05
17649;BME280;8943;51.110;-4.158;2023-05-11T10:02:19;101274.84;;;19.89;47.26
17649;BME280;8943;51.110;-4.158;2023-05-11T10:04:48;101289.00;;;19.83;47.47
17649;BME280;8943;51.110;-4.158;2023-05-11T10:07:24;101283.63;;;19.65;46.94
17649;BME280;8943;51.110;-4.158;2023-05-11T10:09:53;101285.72;;;19.53;47.26
17649;BME280;8943;51.110;-4.158;2023-05-11T10:12:23;101285.34;;;19.48;47.73
17649;BME280;8943;51.110;-4.158;2023-05-11T10:15:00;101289.91;;;19.47;47.56
17649;BME280;8943;51.110;-4.158;2023-05-11T10:17:28;101287.28;;;19.38;47.76
17649;BME280;8943;51.110;-4.158;2023-05-11T10:19:57;101291.06;;;19.27;47.87
17649;BME280;8943;51.110;-4.158;2023-05-11T10:22:27;101285.13;;;19.23;48.33
17649;BME280;8943;51.110;-4.158;2023-05-11T10:24:56;101280.78;;;19.30;48.53
17649;BME280;8943;51.110;-4.158;2023-05-11T10:27:27;101287.81;;;19.41;48.73
17649;BME280;8943;51.110;-4.158;2023-05-11T10:29:57;101282.00;;;19.54;48.08
17649;BME280;8943;51.110;-4.158;2023-05-11T10:32:26;101283.00;;;19.53;47.64
17649;BME280;8943;51.110;-4.158;2023-05-11T10:34:55;101290.13;;;19.54;48.02
17649;BME280;8943;51.110;-4.158;2023-05-11T10:37:24;101299.00;;;19.64;48.09
17649;BME280;8943;51.110;-4.158;2023-05-11T10:39:53;101291.91;;;19.63;47.66
17649;BME280;8943;51.110;-4.158;2023-05-11T10:42:32;101285.97;;;19.60;47.24
17649;BME280;8943;51.110;-4.158;2023-05-11T10:45:22;101299.31;;;19.61;47.18
17649;BME280;8943;51.110;-4.158;2023-05-11T10:48:29;101283.69;;;19.55;46.61
17649;BME280;8943;51.110;-4.158;2023-05-11T10:51:28;101292.97;;;19.52;46.64
17649;BME280;8943;51.110;-4.158;2023-05-11T10:54:12;101302.78;;;19.53;45.75
17649;BME280;8943;51.110;-4.158;2023-05-11T10:56:55;101295.78;;;19.43;46.55
17649;BME280;8943;51.110;-4.158;2023-05-11T10:59:42;101301.22;;;19.51;46.92
17649;BME280;8943;51.110;-4.158;2023-05-11T11:02:14;101302.38;;;19.66;46.67
17649;BME280;8943;51.110;-4.158;2023-05-11T11:04:45;101294.53;;;19.81;45.57
17649;BME280;8943;51.110;-4.158;2023-05-11T11:07:15;101300.59;;;19.75;44.50
17649;BME280;8943;51.110;-4.158;2023-05-11T11:09:53;101298.69;;;19.67;45.10
17649;BME280;8943;51.110;-4.158;2023-05-11T11:12:23;101297.91;;;19.57;44.59
17649;BME280;8943;51.110;-4.158;2023-05-11T11:14:57;101299.91;;;19.55;44.99
17649;BME280;8943;51.110;-4.158;2023-05-11T11:17:27;101293.34;;;19.58;44.90
17649;BME280;8943;51.110;-4.158;2023-05-11T11:19:58;101285.81;;;19.43;45.06
17649;BME280;8943;51.110;-4.158;2023-05-11T11:22:43;101293.53;;;19.20;45.60
17649;BME280;8943;51.110;-4.158;2023-05-11T11:25:14;101292.44;;;19.31;46.23
17649;BME280;8943;51.110;-4.158;2023-05-11T11:27:57;101284.13;;;19.42;46.50
17649;BME280;8943;51.110;-4.158;2023-05-11T11:30:26;101290.72;;;19.66;46.21
17649;BME280;8943;51.110;-4.158;2023-05-11T11:33:31;101288.66;;;19.86;46.23
17649;BME280;8943;51.110;-4.158;2023-05-11T11:36:00;101290.22;;;19.88;44.42
17649;BME280;8943;51.110;-4.158;2023-05-11T11:38:29;101288.63;;;19.77;44.15
17649;BME280;8943;51.110;-4.158;2023-05-11T11:40:58;101287.34;;;19.64;44.53
17649;BME280;8943;51.110;-4.158;2023-05-11T11:43:30;101285.81;;;19.43;44.46
17649;BME280;8943;51.110;-4.158;2023-05-11T11:46:24;101276.41;;;19.29;45.00
17649;BME280;8943;51.110;-4.158;2023-05-11T11:49:05;101279.09;;;19.29;45.74
17649;BME280;8943;51.110;-4.158;2023-05-11T11:51:34;101272.44;;;19.42;45.91
17649;BME280;8943;51.110;-4.158;2023-05-11T11:54:06;101274.53;;;19.48;44.95
17649;BME280;8943;51.110;-4.158;2023-05-11T11:56:39;101281.16;;;19.53;45.06
17649;BME280;8943;51.110;-4.158;2023-05-11T11:59:13;101262.72;;;19.49;44.99
17649;BME280;8943;51.110;-4.158;2023-05-11T12:01:43;101274.75;;;19.54;45.13
17649;BME280;8943;51.110;-4.158;2023-05-11T12:04:29;101268.97;;;19.49;44.95
17649;BME280;8943;51.110;-4.158;2023-05-11T12:07:03;101264.69;;;19.47;45.19
17649;BME280;8943;51.110;-4.158;2023-05-11T12:09:35;101268.97;;;19.49;45.08
17649;BME280;8943;51.110;-4.158;2023-05-11T12:12:05;101265.47;;;19.57;45.33
17649;BME280;8943;51.110;-4.158;2023-05-11T12:14:33;101270.59;;;19.60;45.58
17649;BME280;8943;51.110;-4.158;2023-05-11T12:17:07;101267.63;;;19.71;45.54
17649;BME280;8943;51.110;-4.158;2023-05-11T12:19:43;101270.75;;;19.85;45.11
17649;BME280;8943;51.110;-4.158;2023-05-11T12:22:12;101275.03;;;19.95;44.55
17649;BME280;8943;51.110;-4.158;2023-05-11T12:24:42;101273.03;;;19.97;44.15
17649;BME280;8943;51.110;-4.158;2023-05-11T12:27:10;101261.56;;;20.03;44.30
17649;BME280;8943;51.110;-4.158;2023-05-11T12:29:38;101268.06;;;20.19;44.74
17649;BME280;8943;51.110;-4.158;2023-05-11T12:32:10;101271.47;;;20.29;43.60
17649;BME280;8943;51.110;-4.158;2023-05-11T12:34:39;101276.06;;;20.28;43.11
17649;BME280;8943;51.110;-4.158;2023-05-11T12:37:09;101267.63;;;20.31;42.77
17649;BME280;8943;51.110;-4.158;2023-05-11T12:39:37;101268.63;;;20.30;43.56
17649;BME280;8943;51.110;-4.158;2023-05-11T12:42:06;101278.09;;;20.35;43.43
17649;BME280;8943;51.110;-4.158;2023-05-11T12:44:35;101274.72;;;20.32;43.66
17649;BME280;8943;51.110;-4.158;2023-05-11T12:47:03;101273.81;;;20.50;43.59
17649;BME280;8943;51.110;-4.158;2023-05-11T12:49:32;101270.59;;;20.54;43.11
17649;BME280;8943;51.110;-4.158;2023-05-11T12:52:03;101270.09;;;20.51;43.24
17649;BME280;8943;51.110;-4.158;2023-05-11T12:54:37;101275.84;;;20.56;43.53
17649;BME280;8943;51.110;-4.158;2023-05-11T12:57:07;101278.94;;;20.69;42.92
17649;BME280;8943;51.110;-4.158;2023-05-11T12:59:37;101263.53;;;20.70;42.06
17649;BME280;8943;51.110;-4.158;2023-05-11T13:02:12;101282.00;;;20.74;41.70
17649;BME280;8943;51.110;-4.158;2023-05-11T13:04:42;101262.31;;;20.56;41.51
17649;BME280;8943;51.110;-4.158;2023-05-11T13:07:11;101268.13;;;20.69;42.98
17649;BME280;8943;51.110;-4.158;2023-05-11T13:09:40;101263.88;;;20.67;41.44